Terminal Aerodrome Forecast
Issued by NWS

Home | Current Version | Previous Version | Text Only | Print | Product List | Glossary On
Versions: 1 2 3 4 5 6 7 8 9 10 11 12 13 14 15 16 17 18 19 20 21 22
000
FTUS43 KJKL 210307 AAA
TAFSME
TAF AMD
KSME 210307Z 2103/2124 23008KT P6SM VCTS BKN017CB BKN021 BKN050
     FM210400 22007KT 5SM SHRA VCTS SCT003CB OVC015
     FM210900 26006KT P6SM SHRA VCTS OVC003CB
     FM211600 25006KT P6SM VCSH SCT003 OVC008
     FM211900 29007KT P6SM BKN080=

USA.gov is the U.S. government's official web portal to all federal, state and local government web resources and services.